Weatherford, Texas
Current Conditions -  °F | °C
As of 2:53 AM on Sunday 26 Oct 2014 (Local Time) from KMWL Reporting Station
Clear Clear  
Wind Chill: 64°   Ceiling: Unl
Heat Index: 64°   Visibility: 8mi
Dew Point: 58°   Wind: 10mph
Humidity: 80%   Direction: 140°SE
Pressure: 30.01"   Gusts: NA
Location:  32.76°N, 97.8°W
Report Text: KMWL 260753Z AUTO 14009KT 8SM CLR 18/14 A3001 RMK AO2 SLP149 T01780144
Loading
Personal Weather Stations






























Interactive Weather Map
Tropical Storm Tracking
New forecast layout! Learn more

10-Day Weather Forecast

Advertisements
Track Severe Weather on mobile